sensor_id;sensor_type;location;lat;lon;timestamp;temperature;humidity
10864;DHT22;5485;37.558;126.950;2023-02-28T00:04:45;4.60;1.00
10864;DHT22;5485;37.558;126.950;2023-02-28T00:07:19;4.70;1.00
10864;DHT22;5485;37.558;126.950;2023-02-28T00:09:46;4.80;1.00
10864;DHT22;5485;37.558;126.950;2023-02-28T00:12:13;4.90;1.00
10864;DHT22;5485;37.558;126.950;2023-02-28T00:14:43;4.80;1.00
10864;DHT22;5485;37.558;126.950;2023-02-28T00:17:10;4.90;1.00
10864;DHT22;5485;37.558;126.950;2023-02-28T00:19:36;5.00;1.00
10864;DHT22;5485;37.558;126.950;2023-02-28T00:22:07;5.10;1.00
10864;DHT22;5485;37.558;126.950;2023-02-28T00:24:34;5.20;1.00
10864;DHT22;5485;37.558;126.950;2023-02-28T00:27:00;5.30;1.00
10864;DHT22;5485;37.558;126.950;2023-02-28T00:29:27;5.40;1.00
10864;DHT22;5485;37.558;126.950;2023-02-28T00:31:54;5.60;1.00
10864;DHT22;5485;37.558;126.950;2023-02-28T00:34:21;5.60;1.00
10864;DHT22;5485;37.558;126.950;2023-02-28T00:36:51;5.70;1.00
10864;DHT22;5485;37.558;126.950;2023-02-28T00:39:18;5.50;1.00
10864;DHT22;5485;37.558;126.950;2023-02-28T00:41:45;5.50;1.00
10864;DHT22;5485;37.558;126.950;2023-02-28T00:44:15;5.60;1.00
10864;DHT22;5485;37.558;126.950;2023-02-28T00:46:47;5.70;1.00
10864;DHT22;5485;37.558;126.950;2023-02-28T00:49:14;5.70;1.00
10864;DHT22;5485;37.558;126.950;2023-02-28T00:51:41;5.80;1.00
10864;DHT22;5485;37.558;126.950;2023-02-28T00:54:08;5.90;1.00
10864;DHT22;5485;37.558;126.950;2023-02-28T00:56:35;5.90;1.00
10864;DHT22;5485;37.558;126.950;2023-02-28T00:59:02;5.90;1.00
10864;DHT22;5485;37.558;126.950;2023-02-28T01:01:29;5.90;1.00
10864;DHT22;5485;37.558;126.950;2023-02-28T01:03:55;5.70;1.00
10864;DHT22;5485;37.558;126.950;2023-02-28T01:06:23;5.70;1.00
10864;DHT22;5485;37.558;126.950;2023-02-28T01:08:49;5.70;1.00
10864;DHT22;5485;37.558;126.950;2023-02-28T01:11:17;5.50;1.00
10864;DHT22;5485;37.558;126.950;2023-02-28T01:13:45;5.70;1.00
10864;DHT22;5485;37.558;126.950;2023-02-28T01:16:12;5.80;1.00
10864;DHT22;5485;37.558;126.950;2023-02-28T01:18:39;5.80;1.00
10864;DHT22;5485;37.558;126.950;2023-02-28T01:21:15;5.90;1.00
10864;DHT22;5485;37.558;126.950;2023-02-28T01:23:42;5.70;1.00
10864;DHT22;5485;37.558;126.950;2023-02-28T01:26:18;5.80;1.00
10864;DHT22;5485;37.558;126.950;2023-02-28T01:28:45;5.90;1.00
10864;DHT22;5485;37.558;126.950;2023-02-28T01:31:13;6.00;1.00
10864;DHT22;5485;37.558;126.950;2023-02-28T01:33:40;6.00;1.00
10864;DHT22;5485;37.558;126.950;2023-02-28T01:36:11;6.10;1.00
10864;DHT22;5485;37.558;126.950;2023-02-28T01:38:39;6.20;1.00
10864;DHT22;5485;37.558;126.950;2023-02-28T01:41:07;6.30;1.00
10864;DHT22;5485;37.558;126.950;2023-02-28T01:46:11;6.30;1.00
10864;DHT22;5485;37.558;126.950;2023-02-28T01:48:43;6.30;1.00
10864;DHT22;5485;37.558;126.950;2023-02-28T01:51:17;6.20;1.00
10864;DHT22;5485;37.558;126.950;2023-02-28T01:53:49;6.30;1.00
10864;DHT22;5485;37.558;126.950;2023-02-28T01:56:20;6.60;1.00
10864;DHT22;5485;37.558;126.950;2023-02-28T01:58:49;6.60;1.00
10864;DHT22;5485;37.558;126.950;2023-02-28T02:01:17;6.50;1.00
10864;DHT22;5485;37.558;126.950;2023-02-28T02:04:07;6.30;1.00
10864;DHT22;5485;37.558;126.950;2023-02-28T02:06:38;6.30;1.00
10864;DHT22;5485;37.558;126.950;2023-02-28T02:09:06;6.20;1.00
10864;DHT22;5485;37.558;126.950;2023-02-28T02:11:34;6.30;1.00
10864;DHT22;5485;37.558;126.950;2023-02-28T02:20:45;6.50;1.00
10864;DHT22;5485;37.558;126.950;2023-02-28T02:26:13;6.60;1.00
10864;DHT22;5485;37.558;126.950;2023-02-28T02:31:46;6.50;1.00
10864;DHT22;5485;37.558;126.950;2023-02-28T02:42:36;6.60;1.00
10864;DHT22;5485;37.558;126.950;2023-02-28T02:45:09;6.80;1.00
10864;DHT22;5485;37.558;126.950;2023-02-28T02:47:39;6.60;1.00
10864;DHT22;5485;37.558;126.950;2023-02-28T02:50:11;6.70;1.00
10864;DHT22;5485;37.558;126.950;2023-02-28T02:52:47;6.90;1.00
10864;DHT22;5485;37.558;126.950;2023-02-28T02:55:18;6.80;1.00
10864;DHT22;5485;37.558;126.950;2023-02-28T02:57:53;6.80;1.00
10864;DHT22;5485;37.558;126.950;2023-02-28T03:00:29;6.70;1.00
10864;DHT22;5485;37.558;126.950;2023-02-28T03:02:57;6.70;1.00
10864;DHT22;5485;37.558;126.950;2023-02-28T03:05:51;6.70;1.00
10864;DHT22;5485;37.558;126.950;2023-02-28T03:08:18;7.00;1.00
10864;DHT22;5485;37.558;126.950;2023-02-28T03:10:48;7.10;1.00
10864;DHT22;5485;37.558;126.950;2023-02-28T03:18:36;7.50;1.00
10864;DHT22;5485;37.558;126.950;2023-02-28T03:21:15;7.50;1.00
10864;DHT22;5485;37.558;126.950;2023-02-28T03:24:15;7.30;1.00
10864;DHT22;5485;37.558;126.950;2023-02-28T03:26:49;7.60;1.00
10864;DHT22;5485;37.558;126.950;2023-02-28T03:32:04;7.80;1.00
10864;DHT22;5485;37.558;126.950;2023-02-28T03:35:39;7.70;1.00
10864;DHT22;5485;37.558;126.950;2023-02-28T03:37:38;7.40;1.00
10864;DHT22;5485;37.558;126.950;2023-02-28T03:40:15;7.60;1.00
10864;DHT22;5485;37.558;126.950;2023-02-28T03:42:46;7.90;1.00
10864;DHT22;5485;37.558;126.950;2023-02-28T03:45:24;8.00;1.00
10864;DHT22;5485;37.558;126.950;2023-02-28T03:47:55;8.10;1.00
10864;DHT22;5485;37.558;126.950;2023-02-28T03:50:52;8.10;1.00
10864;DHT22;5485;37.558;126.950;2023-02-28T03:55:59;7.90;1.00
10864;DHT22;5485;37.558;126.950;2023-02-28T03:58:41;7.70;1.00
10864;DHT22;5485;37.558;126.950;2023-02-28T04:01:19;7.70;1.00
10864;DHT22;5485;37.558;126.950;2023-02-28T04:03:47;7.60;1.00
10864;DHT22;5485;37.558;126.950;2023-02-28T04:06:22;7.60;1.00
10864;DHT22;5485;37.558;126.950;2023-02-28T04:08:49;7.40;1.00
10864;DHT22;5485;37.558;126.950;2023-02-28T04:13:55;7.80;1.00
10864;DHT22;5485;37.558;126.950;2023-02-28T04:16:22;7.70;1.00
10864;DHT22;5485;37.558;126.950;2023-02-28T04:18:49;7.60;1.00
10864;DHT22;5485;37.558;126.950;2023-02-28T04:21:16;7.80;1.00
10864;DHT22;5485;37.558;126.950;2023-02-28T04:23:47;7.80;1.00
10864;DHT22;5485;37.558;126.950;2023-02-28T04:26:13;7.80;1.00
10864;DHT22;5485;37.558;126.950;2023-02-28T04:28:40;7.80;1.00
10864;DHT22;5485;37.558;126.950;2023-02-28T04:31:09;7.90;1.00
10864;DHT22;5485;37.558;126.950;2023-02-28T04:33:37;8.10;1.00
10864;DHT22;5485;37.558;126.950;2023-02-28T04:36:07;8.20;1.00
10864;DHT22;5485;37.558;126.950;2023-02-28T04:38:38;8.40;1.00
10864;DHT22;5485;37.558;126.950;2023-02-28T04:41:06;8.50;1.00
10864;DHT22;5485;37.558;126.950;2023-02-28T04:43:33;8.50;1.00
10864;DHT22;5485;37.558;126.950;2023-02-28T04:46:03;8.10;1.00
10864;DHT22;5485;37.558;126.950;2023-02-28T04:48:34;8.10;1.00
10864;DHT22;5485;37.558;126.950;2023-02-28T04:51:19;8.10;1.00
10864;DHT22;5485;37.558;126.950;2023-02-28T04:53:47;8.10;1.00
10864;DHT22;5485;37.558;126.950;2023-02-28T04:56:16;8.30;1.00
10864;DHT22;5485;37.558;126.950;2023-02-28T04:58:43;8.50;1.00
10864;DHT22;5485;37.558;126.950;2023-02-28T05:01:28;8.60;1.00
10864;DHT22;5485;37.558;126.950;2023-02-28T05:03:57;8.60;1.00
10864;DHT22;5485;37.558;126.950;2023-02-28T05:06:26;8.70;1.00
10864;DHT22;5485;37.558;126.950;2023-02-28T05:08:53;8.70;1.00
10864;DHT22;5485;37.558;126.950;2023-02-28T05:11:27;8.70;1.00
10864;DHT22;5485;37.558;126.950;2023-02-28T05:14:06;8.60;1.00
10864;DHT22;5485;37.558;126.950;2023-02-28T05:16:34;8.40;1.00
10864;DHT22;5485;37.558;126.950;2023-02-28T05:19:01;8.50;1.00
10864;DHT22;5485;37.558;126.950;2023-02-28T05:24:01;8.50;1.00
10864;DHT22;5485;37.558;126.950;2023-02-28T05:26:29;8.50;1.00
10864;DHT22;5485;37.558;126.950;2023-02-28T05:28:56;8.50;1.00
10864;DHT22;5485;37.558;126.950;2023-02-28T05:31:23;8.20;1.00
10864;DHT22;5485;37.558;126.950;2023-02-28T05:33:50;8.20;1.00
10864;DHT22;5485;37.558;126.950;2023-02-28T05:36:18;8.40;1.00
10864;DHT22;5485;37.558;126.950;2023-02-28T05:38:47;8.60;1.00
10864;DHT22;5485;37.558;126.950;2023-02-28T05:41:14;8.90;1.00
10864;DHT22;5485;37.558;126.950;2023-02-28T05:43:41;9.00;1.00
10864;DHT22;5485;37.558;126.950;2023-02-28T05:46:10;8.90;1.00
10864;DHT22;5485;37.558;126.950;2023-02-28T05:48:38;8.90;1.00
10864;DHT22;5485;37.558;126.950;2023-02-28T05:51:07;8.70;1.00
10864;DHT22;5485;37.558;126.950;2023-02-28T05:53:35;8.60;1.00
10864;DHT22;5485;37.558;126.950;2023-02-28T05:56:03;8.70;1.00
10864;DHT22;5485;37.558;126.950;2023-02-28T05:58:30;8.70;1.00
10864;DHT22;5485;37.558;126.950;2023-02-28T06:00:58;8.60;1.00
10864;DHT22;5485;37.558;126.950;2023-02-28T06:03:25;8.70;1.00
10864;DHT22;5485;37.558;126.950;2023-02-28T06:05:52;8.70;1.00
10864;DHT22;5485;37.558;126.950;2023-02-28T06:08:20;8.60;1.00
10864;DHT22;5485;37.558;126.950;2023-02-28T06:10:47;8.10;1.00
10864;DHT22;5485;37.558;126.950;2023-02-28T06:13:14;7.90;1.00
10864;DHT22;5485;37.558;126.950;2023-02-28T06:15:41;8.00;1.00
10864;DHT22;5485;37.558;126.950;2023-02-28T06:18:08;8.20;1.00
10864;DHT22;5485;37.558;126.950;2023-02-28T06:20:35;8.40;1.00
10864;DHT22;5485;37.558;126.950;2023-02-28T06:23:02;8.50;1.00
10864;DHT22;5485;37.558;126.950;2023-02-28T06:25:29;8.30;1.00
10864;DHT22;5485;37.558;126.950;2023-02-28T06:27:56;8.20;1.00
10864;DHT22;5485;37.558;126.950;2023-02-28T06:30:23;8.00;1.00
10864;DHT22;5485;37.558;126.950;2023-02-28T06:32:53;7.90;1.00
10864;DHT22;5485;37.558;126.950;2023-02-28T06:35:20;7.90;1.00
10864;DHT22;5485;37.558;126.950;2023-02-28T06:37:48;7.90;1.00
10864;DHT22;5485;37.558;126.950;2023-02-28T06:40:15;7.90;1.00
10864;DHT22;5485;37.558;126.950;2023-02-28T06:42:42;7.90;1.00
10864;DHT22;5485;37.558;126.950;2023-02-28T06:45:10;7.90;1.00
10864;DHT22;5485;37.558;126.950;2023-02-28T06:47:39;7.80;1.00
10864;DHT22;5485;37.558;126.950;2023-02-28T06:50:10;7.80;1.00
10864;DHT22;5485;37.558;126.950;2023-02-28T06:52:38;7.80;1.00
10864;DHT22;5485;37.558;126.950;2023-02-28T06:55:06;7.90;1.00
10864;DHT22;5485;37.558;126.950;2023-02-28T06:57:34;8.00;1.00
10864;DHT22;5485;37.558;126.950;2023-02-28T07:00:07;8.10;1.00
10864;DHT22;5485;37.558;126.950;2023-02-28T07:02:35;8.10;1.00
10864;DHT22;5485;37.558;126.950;2023-02-28T07:05:04;7.90;1.00
10864;DHT22;5485;37.558;126.950;2023-02-28T07:07:31;7.50;1.00
10864;DHT22;5485;37.558;126.950;2023-02-28T07:09:58;7.40;1.00
10864;DHT22;5485;37.558;126.950;2023-02-28T07:12:25;7.40;1.00
10864;DHT22;5485;37.558;126.950;2023-02-28T07:14:52;7.40;1.00
10864;DHT22;5485;37.558;126.950;2023-02-28T07:17:20;7.30;1.00
10864;DHT22;5485;37.558;126.950;2023-02-28T07:19:47;7.50;1.00
10864;DHT22;5485;37.558;126.950;2023-02-28T07:22:14;7.60;1.00
10864;DHT22;5485;37.558;126.950;2023-02-28T07:24:41;7.80;1.00
10864;DHT22;5485;37.558;126.950;2023-02-28T07:27:08;7.90;1.00
10864;DHT22;5485;37.558;126.950;2023-02-28T07:29:34;7.90;1.00
10864;DHT22;5485;37.558;126.950;2023-02-28T07:32:01;7.70;1.00
10864;DHT22;5485;37.558;126.950;2023-02-28T07:34:28;7.70;1.00
10864;DHT22;5485;37.558;126.950;2023-02-28T07:36:56;7.60;1.00
10864;DHT22;5485;37.558;126.950;2023-02-28T07:39:23;7.40;1.00
10864;DHT22;5485;37.558;126.950;2023-02-28T07:41:51;7.30;1.00
10864;DHT22;5485;37.558;126.950;2023-02-28T07:44:17;7.30;1.00
10864;DHT22;5485;37.558;126.950;2023-02-28T07:46:44;7.20;1.00
10864;DHT22;5485;37.558;126.950;2023-02-28T07:49:11;7.10;1.00
10864;DHT22;5485;37.558;126.950;2023-02-28T07:51:38;7.10;1.00
10864;DHT22;5485;37.558;126.950;2023-02-28T07:54:05;7.10;1.00
10864;DHT22;5485;37.558;126.950;2023-02-28T07:56:32;7.10;1.00
10864;DHT22;5485;37.558;126.950;2023-02-28T07:58:59;7.20;1.00
10864;DHT22;5485;37.558;126.950;2023-02-28T08:01:27;7.20;1.00
10864;DHT22;5485;37.558;126.950;2023-02-28T08:03:54;7.30;1.00
10864;DHT22;5485;37.558;126.950;2023-02-28T08:06:24;7.20;1.00
10864;DHT22;5485;37.558;126.950;2023-02-28T08:08:53;7.20;1.00
10864;DHT22;5485;37.558;126.950;2023-02-28T08:11:22;7.30;1.00
10864;DHT22;5485;37.558;126.950;2023-02-28T08:13:49;7.30;1.00
10864;DHT22;5485;37.558;126.950;2023-02-28T08:16:16;7.30;1.00
10864;DHT22;5485;37.558;126.950;2023-02-28T08:18:50;7.30;1.00
10864;DHT22;5485;37.558;126.950;2023-02-28T08:21:18;7.30;1.00
10864;DHT22;5485;37.558;126.950;2023-02-28T08:23:47;7.30;1.00
10864;DHT22;5485;37.558;126.950;2023-02-28T08:26:15;7.10;1.00
10864;DHT22;5485;37.558;126.950;2023-02-28T08:28:42;7.00;1.00
10864;DHT22;5485;37.558;126.950;2023-02-28T08:31:11;6.90;1.00
10864;DHT22;5485;37.558;126.950;2023-02-28T08:33:40;6.80;1.00
10864;DHT22;5485;37.558;126.950;2023-02-28T08:36:08;6.80;1.00
10864;DHT22;5485;37.558;126.950;2023-02-28T08:38:36;6.90;1.00
10864;DHT22;5485;37.558;126.950;2023-02-28T08:41:06;6.90;1.00
10864;DHT22;5485;37.558;126.950;2023-02-28T08:43:36;6.90;1.00
10864;DHT22;5485;37.558;126.950;2023-02-28T08:46:04;6.80;1.00
10864;DHT22;5485;37.558;126.950;2023-02-28T08:48:33;6.80;1.00
10864;DHT22;5485;37.558;126.950;2023-02-28T08:51:09;6.80;1.00
10864;DHT22;5485;37.558;126.950;2023-02-28T08:53:38;6.80;1.00
10864;DHT22;5485;37.558;126.950;2023-02-28T08:56:06;6.80;1.00
10864;DHT22;5485;37.558;126.950;2023-02-28T08:58:35;6.80;1.00
10864;DHT22;5485;37.558;126.950;2023-02-28T09:01:11;6.80;1.00
10864;DHT22;5485;37.558;126.950;2023-02-28T09:03:39;6.80;1.00
10864;DHT22;5485;37.558;126.950;2023-02-28T09:06:08;6.70;1.00
10864;DHT22;5485;37.558;126.950;2023-02-28T09:08:35;6.70;1.00
10864;DHT22;5485;37.558;126.950;2023-02-28T09:11:03;6.70;1.00
10864;DHT22;5485;37.558;126.950;2023-02-28T09:13:31;6.60;1.00
10864;DHT22;5485;37.558;126.950;2023-02-28T09:15:59;6.60;1.00
10864;DHT22;5485;37.558;126.950;2023-02-28T09:18:27;6.60;1.00
10864;DHT22;5485;37.558;126.950;2023-02-28T09:20:54;6.60;1.00
10864;DHT22;5485;37.558;126.950;2023-02-28T09:23:21;6.60;1.00
10864;DHT22;5485;37.558;126.950;2023-02-28T09:25:55;6.50;1.00
10864;DHT22;5485;37.558;126.950;2023-02-28T09:28:22;6.50;1.00
10864;DHT22;5485;37.558;126.950;2023-02-28T09:30:52;6.40;1.00
10864;DHT22;5485;37.558;126.950;2023-02-28T09:33:19;6.40;1.00
10864;DHT22;5485;37.558;126.950;2023-02-28T09:35:48;6.40;1.00
10864;DHT22;5485;37.558;126.950;2023-02-28T09:38:15;6.30;1.00
10864;DHT22;5485;37.558;126.950;2023-02-28T09:40:51;6.30;1.00
10864;DHT22;5485;37.558;126.950;2023-02-28T09:43:21;6.30;1.00
10864;DHT22;5485;37.558;126.950;2023-02-28T09:48:41;6.30;1.00
10864;DHT22;5485;37.558;126.950;2023-02-28T09:53:59;6.30;1.00
10864;DHT22;5485;37.558;126.950;2023-02-28T09:56:40;6.30;1.00
10864;DHT22;5485;37.558;126.950;2023-02-28T10:02:29;6.30;1.00
10864;DHT22;5485;37.558;126.950;2023-02-28T10:05:12;6.30;1.00
10864;DHT22;5485;37.558;126.950;2023-02-28T10:12:56;6.20;1.00
10864;DHT22;5485;37.558;126.950;2023-02-28T10:15:26;6.20;1.00
10864;DHT22;5485;37.558;126.950;2023-02-28T10:17:58;6.20;1.00
10864;DHT22;5485;37.558;126.950;2023-02-28T10:20:26;6.20;1.00
10864;DHT22;5485;37.558;126.950;2023-02-28T10:23:01;6.20;1.00
10864;DHT22;5485;37.558;126.950;2023-02-28T10:25:35;6.20;1.00
10864;DHT22;5485;37.558;126.950;2023-02-28T10:28:14;6.20;1.00
10864;DHT22;5485;37.558;126.950;2023-02-28T10:30:50;6.20;1.00
10864;DHT22;5485;37.558;126.950;2023-02-28T10:33:34;6.30;1.00
10864;DHT22;5485;37.558;126.950;2023-02-28T10:36:03;6.30;1.00
10864;DHT22;5485;37.558;126.950;2023-02-28T10:38:38;6.30;1.00
10864;DHT22;5485;37.558;126.950;2023-02-28T10:43:40;6.30;1.00
10864;DHT22;5485;37.558;126.950;2023-02-28T10:48:45;6.30;1.00
10864;DHT22;5485;37.558;126.950;2023-02-28T10:51:18;6.30;1.00
10864;DHT22;5485;37.558;126.950;2023-02-28T10:53:55;6.20;1.00
10864;DHT22;5485;37.558;126.950;2023-02-28T10:56:23;6.20;1.00
10864;DHT22;5485;37.558;126.950;2023-02-28T10:59:00;6.30;1.00
10864;DHT22;5485;37.558;126.950;2023-02-28T11:01:38;6.30;1.00
10864;DHT22;5485;37.558;126.950;2023-02-28T11:07:21;6.40;1.00
10864;DHT22;5485;37.558;126.950;2023-02-28T11:09:53;6.40;1.00
10864;DHT22;5485;37.558;126.950;2023-02-28T11:12:32;6.40;1.00
10864;DHT22;5485;37.558;126.950;2023-02-28T11:15:30;6.40;1.00
10864;DHT22;5485;37.558;126.950;2023-02-28T11:20:52;6.50;1.00
10864;DHT22;5485;37.558;126.950;2023-02-28T11:23:21;6.50;1.00
10864;DHT22;5485;37.558;126.950;2023-02-28T11:25:52;6.60;1.00
10864;DHT22;5485;37.558;126.950;2023-02-28T11:28:32;6.60;1.00
10864;DHT22;5485;37.558;126.950;2023-02-28T11:33:52;6.60;1.00
10864;DHT22;5485;37.558;126.950;2023-02-28T11:36:23;6.60;1.00
10864;DHT22;5485;37.558;126.950;2023-02-28T11:39:00;6.50;1.00
10864;DHT22;5485;37.558;126.950;2023-02-28T11:47:43;6.70;1.00
10864;DHT22;5485;37.558;126.950;2023-02-28T11:53:17;6.70;1.00
10864;DHT22;5485;37.558;126.950;2023-02-28T11:55:58;6.70;1.00
10864;DHT22;5485;37.558;126.950;2023-02-28T12:02:05;6.70;1.00
10864;DHT22;5485;37.558;126.950;2023-02-28T12:22:30;6.60;1.00
10864;DHT22;5485;37.558;126.950;2023-02-28T12:27:43;6.70;1.00
10864;DHT22;5485;37.558;126.950;2023-02-28T12:30:27;6.70;1.00
10864;DHT22;5485;37.558;126.950;2023-02-28T12:33:08;6.70;1.00
10864;DHT22;5485;37.558;126.950;2023-02-28T12:35:52;6.70;1.00
10864;DHT22;5485;37.558;126.950;2023-02-28T12:44:06;6.70;1.00
10864;DHT22;5485;37.558;126.950;2023-02-28T12:46:48;6.60;1.00
10864;DHT22;5485;37.558;126.950;2023-02-28T12:51:51;6.60;1.00
10864;DHT22;5485;37.558;126.950;2023-02-28T12:57:01;6.60;1.00
10864;DHT22;5485;37.558;126.950;2023-02-28T13:02:22;6.60;1.00
10864;DHT22;5485;37.558;126.950;2023-02-28T13:07:59;6.60;1.00
10864;DHT22;5485;37.558;126.950;2023-02-28T13:10:50;6.60;1.00
10864;DHT22;5485;37.558;126.950;2023-02-28T13:13:23;6.70;1.00
10864;DHT22;5485;37.558;126.950;2023-02-28T13:21:00;6.70;1.00
10864;DHT22;5485;37.558;126.950;2023-02-28T13:23:58;6.70;1.00
10864;DHT22;5485;37.558;126.950;2023-02-28T13:37:37;6.80;1.00
10864;DHT22;5485;37.558;126.950;2023-02-28T13:42:47;6.70;1.00
10864;DHT22;5485;37.558;126.950;2023-02-28T13:48:30;6.70;1.00
10864;DHT22;5485;37.558;126.950;2023-02-28T13:50:57;6.70;1.00
10864;DHT22;5485;37.558;126.950;2023-02-28T13:53:40;6.70;1.00
10864;DHT22;5485;37.558;126.950;2023-02-28T13:59:37;6.70;1.00
10864;DHT22;5485;37.558;126.950;2023-02-28T14:10:48;6.70;1.00
10864;DHT22;5485;37.558;126.950;2023-02-28T14:16:01;6.80;1.00
10864;DHT22;5485;37.558;126.950;2023-02-28T14:18:51;6.80;1.00
10864;DHT22;5485;37.558;126.950;2023-02-28T14:21:34;6.80;1.00
10864;DHT22;5485;37.558;126.950;2023-02-28T14:27:11;6.70;1.00
10864;DHT22;5485;37.558;126.950;2023-02-28T14:37:54;6.70;1.00
10864;DHT22;5485;37.558;126.950;2023-02-28T14:40:30;6.70;1.00
10864;DHT22;5485;37.558;126.950;2023-02-28T14:43:23;6.70;1.00
10864;DHT22;5485;37.558;126.950;2023-02-28T14:45:58;6.70;1.00
10864;DHT22;5485;37.558;126.950;2023-02-28T14:48:26;6.70;1.00
10864;DHT22;5485;37.558;126.950;2023-02-28T14:50:59;6.70;1.00
10864;DHT22;5485;37.558;126.950;2023-02-28T14:53:30;6.70;1.00
10864;DHT22;5485;37.558;126.950;2023-02-28T14:55:57;6.70;1.00
10864;DHT22;5485;37.558;126.950;2023-02-28T14:58:31;6.70;1.00
10864;DHT22;5485;37.558;126.950;2023-02-28T15:01:03;6.70;1.00
10864;DHT22;5485;37.558;126.950;2023-02-28T15:06:00;6.60;1.00
10864;DHT22;5485;37.558;126.950;2023-02-28T15:08:31;6.60;1.00
10864;DHT22;5485;37.558;126.950;2023-02-28T15:11:21;6.60;1.00
10864;DHT22;5485;37.558;126.950;2023-02-28T15:13:51;6.60;1.00
10864;DHT22;5485;37.558;126.950;2023-02-28T15:16:28;6.60;1.00
10864;DHT22;5485;37.558;126.950;2023-02-28T15:19:21;6.60;1.00
10864;DHT22;5485;37.558;126.950;2023-02-28T15:21:56;6.60;1.00
10864;DHT22;5485;37.558;126.950;2023-02-28T15:24:46;6.60;1.00
10864;DHT22;5485;37.558;126.950;2023-02-28T15:27:26;6.60;1.00
10864;DHT22;5485;37.558;126.950;2023-02-28T15:30:08;6.60;1.00
10864;DHT22;5485;37.558;126.950;2023-02-28T15:32:38;6.60;1.00
10864;DHT22;5485;37.558;126.950;2023-02-28T15:38:59;6.60;1.00
10864;DHT22;5485;37.558;126.950;2023-02-28T15:41:43;6.60;1.00
10864;DHT22;5485;37.558;126.950;2023-02-28T15:47:25;6.60;1.00
10864;DHT22;5485;37.558;126.950;2023-02-28T15:49:58;6.60;1.00
10864;DHT22;5485;37.558;126.950;2023-02-28T15:52:41;6.60;1.00
10864;DHT22;5485;37.558;126.950;2023-02-28T15:55:20;6.60;1.00
10864;DHT22;5485;37.558;126.950;2023-02-28T15:57:53;6.60;1.00
10864;DHT22;5485;37.558;126.950;2023-02-28T16:00:23;6.60;1.00
10864;DHT22;5485;37.558;126.950;2023-02-28T16:02:50;6.60;1.00
10864;DHT22;5485;37.558;126.950;2023-02-28T16:05:30;6.60;1.00
10864;DHT22;5485;37.558;126.950;2023-02-28T16:08:14;6.60;1.00
10864;DHT22;5485;37.558;126.950;2023-02-28T16:10:41;6.60;1.00
10864;DHT22;5485;37.558;126.950;2023-02-28T16:13:11;6.60;1.00
10864;DHT22;5485;37.558;126.950;2023-02-28T16:15:42;6.60;1.00
10864;DHT22;5485;37.558;126.950;2023-02-28T16:18:13;6.60;1.00
10864;DHT22;5485;37.558;126.950;2023-02-28T16:20:40;6.60;1.00
10864;DHT22;5485;37.558;126.950;2023-02-28T16:23:07;6.60;1.00
10864;DHT22;5485;37.558;126.950;2023-02-28T16:25:39;6.60;1.00
10864;DHT22;5485;37.558;126.950;2023-02-28T16:28:25;6.60;1.00
10864;DHT22;5485;37.558;126.950;2023-02-28T16:30:57;6.60;1.00
10864;DHT22;5485;37.558;126.950;2023-02-28T16:33:23;6.60;1.00
10864;DHT22;5485;37.558;126.950;2023-02-28T16:35:50;6.60;1.00
10864;DHT22;5485;37.558;126.950;2023-02-28T16:38:17;6.60;1.00
10864;DHT22;5485;37.558;126.950;2023-02-28T16:40:44;6.60;1.00
10864;DHT22;5485;37.558;126.950;2023-02-28T16:43:29;6.60;1.00
10864;DHT22;5485;37.558;126.950;2023-02-28T16:45:57;6.60;1.00
10864;DHT22;5485;37.558;126.950;2023-02-28T16:48:24;6.60;1.00
10864;DHT22;5485;37.558;126.950;2023-02-28T16:50:51;6.70;1.00
10864;DHT22;5485;37.558;126.950;2023-02-28T16:53:18;6.60;1.00
10864;DHT22;5485;37.558;126.950;2023-02-28T16:55:45;6.60;1.00
10864;DHT22;5485;37.558;126.950;2023-02-28T16:58:16;6.70;1.00
10864;DHT22;5485;37.558;126.950;2023-02-28T17:00:45;6.70;1.00
10864;DHT22;5485;37.558;126.950;2023-02-28T17:03:24;6.70;1.00
10864;DHT22;5485;37.558;126.950;2023-02-28T17:05:51;6.70;1.00
10864;DHT22;5485;37.558;126.950;2023-02-28T17:08:18;6.70;1.00
10864;DHT22;5485;37.558;126.950;2023-02-28T17:10:45;6.70;1.00
10864;DHT22;5485;37.558;126.950;2023-02-28T17:13:12;6.70;1.00
10864;DHT22;5485;37.558;126.950;2023-02-28T17:15:40;6.70;1.00
10864;DHT22;5485;37.558;126.950;2023-02-28T17:18:10;6.60;1.00
10864;DHT22;5485;37.558;126.950;2023-02-28T17:20:40;6.70;1.00
10864;DHT22;5485;37.558;126.950;2023-02-28T17:23:09;6.60;1.00
10864;DHT22;5485;37.558;126.950;2023-02-28T17:25:35;6.60;1.00
10864;DHT22;5485;37.558;126.950;2023-02-28T17:28:03;6.60;1.00
10864;DHT22;5485;37.558;126.950;2023-02-28T17:30:32;6.60;1.00
10864;DHT22;5485;37.558;126.950;2023-02-28T17:32:59;6.60;1.00
10864;DHT22;5485;37.558;126.950;2023-02-28T17:35:26;6.60;1.00
10864;DHT22;5485;37.558;126.950;2023-02-28T17:37:53;6.60;1.00
10864;DHT22;5485;37.558;126.950;2023-02-28T17:40:22;6.50;1.00
10864;DHT22;5485;37.558;126.950;2023-02-28T17:42:49;6.50;1.00
10864;DHT22;5485;37.558;126.950;2023-02-28T17:45:18;6.50;1.00
10864;DHT22;5485;37.558;126.950;2023-02-28T17:47:47;6.50;1.00
10864;DHT22;5485;37.558;126.950;2023-02-28T17:50:18;6.50;1.00
10864;DHT22;5485;37.558;126.950;2023-02-28T17:52:45;6.50;1.00
10864;DHT22;5485;37.558;126.950;2023-02-28T17:55:13;6.40;1.00
10864;DHT22;5485;37.558;126.950;2023-02-28T17:57:40;6.40;1.00
10864;DHT22;5485;37.558;126.950;2023-02-28T18:00:10;6.40;1.00
10864;DHT22;5485;37.558;126.950;2023-02-28T18:02:39;6.50;1.00
10864;DHT22;5485;37.558;126.950;2023-02-28T18:05:07;6.40;1.00
10864;DHT22;5485;37.558;126.950;2023-02-28T18:07:36;6.40;1.00
10864;DHT22;5485;37.558;126.950;2023-02-28T18:10:03;6.50;1.00
10864;DHT22;5485;37.558;126.950;2023-02-28T18:12:30;6.50;1.00
10864;DHT22;5485;37.558;126.950;2023-02-28T18:14:57;6.40;1.00
10864;DHT22;5485;37.558;126.950;2023-02-28T18:17:24;6.50;1.00
10864;DHT22;5485;37.558;126.950;2023-02-28T18:19:51;6.50;1.00
10864;DHT22;5485;37.558;126.950;2023-02-28T18:22:17;6.50;1.00
10864;DHT22;5485;37.558;126.950;2023-02-28T18:24:44;6.50;1.00
10864;DHT22;5485;37.558;126.950;2023-02-28T18:27:11;6.50;1.00
10864;DHT22;5485;37.558;126.950;2023-02-28T18:29:38;6.50;1.00
10864;DHT22;5485;37.558;126.950;2023-02-28T18:32:06;6.50;1.00
10864;DHT22;5485;37.558;126.950;2023-02-28T18:34:32;6.50;1.00
10864;DHT22;5485;37.558;126.950;2023-02-28T18:36:59;6.50;1.00
10864;DHT22;5485;37.558;126.950;2023-02-28T18:39:26;6.50;1.00
10864;DHT22;5485;37.558;126.950;2023-02-28T18:41:53;6.50;1.00
10864;DHT22;5485;37.558;126.950;2023-02-28T18:44:20;6.50;1.00
10864;DHT22;5485;37.558;126.950;2023-02-28T18:46:48;6.60;1.00
10864;DHT22;5485;37.558;126.950;2023-02-28T18:49:16;6.50;1.00
10864;DHT22;5485;37.558;126.950;2023-02-28T18:51:43;6.50;1.00
10864;DHT22;5485;37.558;126.950;2023-02-28T18:54:12;6.50;1.00
10864;DHT22;5485;37.558;126.950;2023-02-28T18:56:39;6.50;1.00
10864;DHT22;5485;37.558;126.950;2023-02-28T18:59:06;6.50;1.00
10864;DHT22;5485;37.558;126.950;2023-02-28T19:01:33;6.50;1.00
10864;DHT22;5485;37.558;126.950;2023-02-28T19:04:01;6.50;1.00
10864;DHT22;5485;37.558;126.950;2023-02-28T19:06:29;6.50;1.00